sensor_id;sensor_type;location;lat;lon;timestamp;pressure;altitude;pressure_sealevel;temperature;humidity
68656;BME280;55638;51.122;13.606;2023-02-28T09:19:13;101716.09;;;-3.38;91.07
68656;BME280;55638;51.122;13.606;2023-02-28T09:20:45;101723.00;;;-2.90;90.98
68656;BME280;55638;51.122;13.606;2023-02-28T09:22:17;101715.75;;;-2.38;90.08
68656;BME280;55638;51.122;13.606;2023-02-28T09:23:50;101711.03;;;-1.87;88.91
68656;BME280;55638;51.122;13.606;2023-02-28T09:25:22;101714.13;;;-1.38;87.59
68656;BME280;55638;51.122;13.606;2023-02-28T09:26:53;101708.38;;;-0.95;85.73
68656;BME280;55638;51.122;13.606;2023-02-28T09:28:35;101714.00;;;-0.50;84.34
68656;BME280;55638;51.122;13.606;2023-02-28T09:30:09;101698.44;;;-0.13;82.46
68656;BME280;55638;51.122;13.606;2023-02-28T09:31:41;101697.94;;;0.20;80.81
68656;BME280;55638;51.122;13.606;2023-02-28T09:33:13;101700.09;;;0.49;79.53
68656;BME280;55638;51.122;13.606;2023-02-28T09:34:45;101698.75;;;0.76;78.46
68656;BME280;55638;51.122;13.606;2023-02-28T09:36:17;101701.88;;;0.99;76.96
68656;BME280;55638;51.122;13.606;2023-02-28T09:37:51;101697.03;;;1.20;75.77
68656;BME280;55638;51.122;13.606;2023-02-28T09:39:25;101701.97;;;1.38;74.54
68656;BME280;55638;51.122;13.606;2023-02-28T09:41:01;101688.38;;;1.52;73.28
68656;BME280;55638;51.122;13.606;2023-02-28T09:42:33;101693.38;;;1.66;72.99
68656;BME280;55638;51.122;13.606;2023-02-28T09:44:06;101693.09;;;1.78;72.41
68656;BME280;55638;51.122;13.606;2023-02-28T09:45:41;101694.63;;;1.88;71.94
68656;BME280;55638;51.122;13.606;2023-02-28T09:47:34;101696.25;;;1.95;68.65
68656;BME280;55638;51.122;13.606;2023-02-28T09:49:13;101688.91;;;2.07;69.64
68656;BME280;55638;51.122;13.606;2023-02-28T09:50:55;101685.38;;;2.05;61.85
68656;BME280;55638;51.122;13.606;2023-02-28T09:52:32;101694.00;;;2.16;67.68
68656;BME280;55638;51.122;13.606;2023-02-28T09:54:04;101681.50;;;2.18;67.20
68656;BME280;55638;51.122;13.606;2023-02-28T09:55:41;101692.16;;;2.18;66.88
68656;BME280;55638;51.122;13.606;2023-02-28T10:00:41;101698.53;;;2.12;65.69
68656;BME280;55638;51.122;13.606;2023-02-28T10:04:37;101692.56;;;2.02;63.91
68656;BME280;55638;51.122;13.606;2023-02-28T10:06:18;101702.31;;;2.02;64.50
68656;BME280;55638;51.122;13.606;2023-02-28T10:08:05;101689.91;;;2.02;64.94
68656;BME280;55638;51.122;13.606;2023-02-28T10:09:39;101695.13;;;2.06;66.76
68656;BME280;55638;51.122;13.606;2023-02-28T10:11:15;101691.56;;;2.07;65.27
68656;BME280;55638;51.122;13.606;2023-02-28T10:12:51;101703.84;;;2.12;65.81
68656;BME280;55638;51.122;13.606;2023-02-28T10:14:26;101700.22;;;2.15;65.83
68656;BME280;55638;51.122;13.606;2023-02-28T10:16:05;101706.38;;;2.17;63.67
68656;BME280;55638;51.122;13.606;2023-02-28T10:17:40;101697.47;;;2.18;64.88
68656;BME280;55638;51.122;13.606;2023-02-28T10:19:51;101691.25;;;2.19;62.36
68656;BME280;55638;51.122;13.606;2023-02-28T10:21:29;101693.84;;;2.22;64.45
68656;BME280;55638;51.122;13.606;2023-02-28T10:23:23;101691.13;;;2.23;63.93
68656;BME280;55638;51.122;13.606;2023-02-28T10:24:57;101691.78;;;2.33;65.68
68656;BME280;55638;51.122;13.606;2023-02-28T10:26:33;101697.19;;;2.30;63.82
68656;BME280;55638;51.122;13.606;2023-02-28T10:29:43;101696.88;;;2.42;63.22
68656;BME280;55638;51.122;13.606;2023-02-28T10:31:18;101696.81;;;2.44;63.17
68656;BME280;55638;51.122;13.606;2023-02-28T10:32:51;101702.97;;;2.47;64.27
68656;BME280;55638;51.122;13.606;2023-02-28T10:34:25;101698.38;;;2.53;64.51
68656;BME280;55638;51.122;13.606;2023-02-28T10:35:57;101700.09;;;2.55;63.77
68656;BME280;55638;51.122;13.606;2023-02-28T10:37:29;101700.13;;;2.54;61.41
68656;BME280;55638;51.122;13.606;2023-02-28T10:39:01;101698.22;;;2.59;59.79
68656;BME280;55638;51.122;13.606;2023-02-28T10:40:34;101703.50;;;2.60;60.27
68656;BME280;55638;51.122;13.606;2023-02-28T10:42:29;101698.28;;;2.57;60.08
68656;BME280;55638;51.122;13.606;2023-02-28T10:44:14;101694.81;;;2.54;59.56
68656;BME280;55638;51.122;13.606;2023-02-28T10:46:09;101688.69;;;2.50;60.68
68656;BME280;55638;51.122;13.606;2023-02-28T10:48:00;101691.41;;;2.48;59.34
68656;BME280;55638;51.122;13.606;2023-02-28T10:49:33;101695.78;;;2.51;61.20
68656;BME280;55638;51.122;13.606;2023-02-28T10:51:07;101685.06;;;2.54;61.58
68656;BME280;55638;51.122;13.606;2023-02-28T10:52:40;101688.59;;;2.55;61.00
68656;BME280;55638;51.122;13.606;2023-02-28T10:54:18;101679.59;;;2.59;61.13
68656;BME280;55638;51.122;13.606;2023-02-28T10:57:40;101688.16;;;2.70;61.91
68656;BME280;55638;51.122;13.606;2023-02-28T11:00:46;101688.84;;;2.78;61.64
68656;BME280;55638;51.122;13.606;2023-02-28T11:02:36;101681.63;;;2.83;56.75
68656;BME280;55638;51.122;13.606;2023-02-28T11:05:48;101681.50;;;2.86;58.46
68656;BME280;55638;51.122;13.606;2023-02-28T11:07:23;101666.53;;;2.82;55.82
68656;BME280;55638;51.122;13.606;2023-02-28T11:09:04;101676.28;;;2.83;57.03
68656;BME280;55638;51.122;13.606;2023-02-28T11:10:38;101662.91;;;2.85;59.16
68656;BME280;55638;51.122;13.606;2023-02-28T11:12:31;101672.78;;;2.81;57.20
68656;BME280;55638;51.122;13.606;2023-02-28T11:14:28;101669.19;;;2.82;57.15
68656;BME280;55638;51.122;13.606;2023-02-28T11:16:07;101669.19;;;2.82;57.05
68656;BME280;55638;51.122;13.606;2023-02-28T11:17:41;101663.00;;;2.82;58.58
68656;BME280;55638;51.122;13.606;2023-02-28T11:19:34;101673.81;;;2.76;55.58
68656;BME280;55638;51.122;13.606;2023-02-28T11:21:18;101669.28;;;2.79;57.17
68656;BME280;55638;51.122;13.606;2023-02-28T11:22:51;101671.06;;;2.79;58.32
68656;BME280;55638;51.122;13.606;2023-02-28T11:24:33;101665.88;;;2.74;56.11
68656;BME280;55638;51.122;13.606;2023-02-28T11:26:07;101664.19;;;2.70;56.76
68656;BME280;55638;51.122;13.606;2023-02-28T11:27:46;101667.06;;;2.62;54.31
68656;BME280;55638;51.122;13.606;2023-02-28T11:29:29;101656.59;;;2.56;54.13
68656;BME280;55638;51.122;13.606;2023-02-28T11:31:06;101665.50;;;2.54;56.95
68656;BME280;55638;51.122;13.606;2023-02-28T11:32:48;101663.75;;;2.54;57.62
68656;BME280;55638;51.122;13.606;2023-02-28T11:34:24;101661.13;;;2.53;58.34
68656;BME280;55638;51.122;13.606;2023-02-28T11:36:03;101659.13;;;2.61;58.32
68656;BME280;55638;51.122;13.606;2023-02-28T11:37:41;101659.78;;;2.69;59.69
68656;BME280;55638;51.122;13.606;2023-02-28T11:39:13;101655.13;;;2.77;59.42
68656;BME280;55638;51.122;13.606;2023-02-28T11:42:35;101656.38;;;2.96;58.83
68656;BME280;55638;51.122;13.606;2023-02-28T11:44:34;101641.25;;;2.97;47.18
68656;BME280;55638;51.122;13.606;2023-02-28T11:50:42;101645.16;;;3.15;46.05
68656;BME280;55638;51.122;13.606;2023-02-28T11:54:08;101636.88;;;3.26;56.63
68656;BME280;55638;51.122;13.606;2023-02-28T11:55:56;101636.78;;;3.29;53.61
68656;BME280;55638;51.122;13.606;2023-02-28T11:58:05;101637.47;;;3.35;56.07
68656;BME280;55638;51.122;13.606;2023-02-28T12:01:32;101629.78;;;3.54;52.21
68656;BME280;55638;51.122;13.606;2023-02-28T12:03:56;101634.56;;;3.73;57.46
68656;BME280;55638;51.122;13.606;2023-02-28T12:07:01;101624.88;;;3.97;55.34
68656;BME280;55638;51.122;13.606;2023-02-28T12:10:23;101624.47;;;4.09;55.16
68656;BME280;55638;51.122;13.606;2023-02-28T12:12:04;101623.41;;;4.15;50.14
68656;BME280;55638;51.122;13.606;2023-02-28T12:13:50;101631.03;;;4.25;54.10
68656;BME280;55638;51.122;13.606;2023-02-28T12:17:35;101631.47;;;4.38;53.79
68656;BME280;55638;51.122;13.606;2023-02-28T12:19:44;101628.56;;;4.46;48.51
68656;BME280;55638;51.122;13.606;2023-02-28T12:25:24;101620.81;;;4.63;52.78
68656;BME280;55638;51.122;13.606;2023-02-28T12:26:53;101612.47;;;4.72;55.15
68656;BME280;55638;51.122;13.606;2023-02-28T12:28:32;101620.28;;;4.78;53.92
68656;BME280;55638;51.122;13.606;2023-02-28T12:30:17;101619.09;;;4.86;52.67
68656;BME280;55638;51.122;13.606;2023-02-28T12:32:06;101630.59;;;4.88;50.50
68656;BME280;55638;51.122;13.606;2023-02-28T12:33:51;101623.06;;;4.99;53.23
68656;BME280;55638;51.122;13.606;2023-02-28T12:35:31;101616.63;;;5.04;52.95
68656;BME280;55638;51.122;13.606;2023-02-28T12:37:17;101610.78;;;5.17;51.34
68656;BME280;55638;51.122;13.606;2023-02-28T12:39:05;101613.53;;;5.15;51.29
68656;BME280;55638;51.122;13.606;2023-02-28T12:40:52;101614.38;;;5.17;51.30
68656;BME280;55638;51.122;13.606;2023-02-28T12:42:30;101616.97;;;5.19;49.78
68656;BME280;55638;51.122;13.606;2023-02-28T12:44:09;101615.03;;;5.22;50.78
68656;BME280;55638;51.122;13.606;2023-02-28T12:45:53;101614.94;;;5.25;51.44
68656;BME280;55638;51.122;13.606;2023-02-28T12:47:27;101622.00;;;5.28;52.28
68656;BME280;55638;51.122;13.606;2023-02-28T12:49:04;101620.13;;;5.30;51.95
68656;BME280;55638;51.122;13.606;2023-02-28T12:50:37;101613.91;;;5.29;52.57
68656;BME280;55638;51.122;13.606;2023-02-28T12:52:10;101613.63;;;5.37;53.52
68656;BME280;55638;51.122;13.606;2023-02-28T12:54:04;101608.28;;;5.37;49.02
68656;BME280;55638;51.122;13.606;2023-02-28T12:55:51;101611.75;;;5.39;50.60
68656;BME280;55638;51.122;13.606;2023-02-28T12:57:49;101611.38;;;5.48;49.31
68656;BME280;55638;51.122;13.606;2023-02-28T12:59:36;101611.88;;;5.58;50.82
68656;BME280;55638;51.122;13.606;2023-02-28T13:02:59;101606.28;;;5.64;51.53
68656;BME280;55638;51.122;13.606;2023-02-28T13:06:57;101605.22;;;5.68;51.43
68656;BME280;55638;51.122;13.606;2023-02-28T13:08:59;101597.56;;;5.59;43.27
68656;BME280;55638;51.122;13.606;2023-02-28T13:10:58;101600.53;;;5.53;43.88
68656;BME280;55638;51.122;13.606;2023-02-28T13:12:33;101605.72;;;5.56;50.14
68656;BME280;55638;51.122;13.606;2023-02-28T13:14:30;101605.28;;;5.45;42.86
68656;BME280;55638;51.122;13.606;2023-02-28T13:16:09;101603.44;;;5.47;48.78
68656;BME280;55638;51.122;13.606;2023-02-28T13:17:48;101602.84;;;5.39;48.88
68656;BME280;55638;51.122;13.606;2023-02-28T13:19:22;101607.41;;;5.37;49.42
68656;BME280;55638;51.122;13.606;2023-02-28T13:20:55;101603.28;;;5.28;49.41
68656;BME280;55638;51.122;13.606;2023-02-28T13:22:43;101602.97;;;5.12;47.28
68656;BME280;55638;51.122;13.606;2023-02-28T13:26:05;101600.63;;;5.03;50.10
68656;BME280;55638;51.122;13.606;2023-02-28T13:27:39;101600.81;;;4.98;50.20
68656;BME280;55638;51.122;13.606;2023-02-28T13:35:38;101581.31;;;4.71;49.38
68656;BME280;55638;51.122;13.606;2023-02-28T13:38:56;101594.78;;;4.68;48.45
68656;BME280;55638;51.122;13.606;2023-02-28T13:40:33;101582.47;;;4.64;49.08
68656;BME280;55638;51.122;13.606;2023-02-28T13:44:13;101581.91;;;4.56;49.45
68656;BME280;55638;51.122;13.606;2023-02-28T13:46:08;101579.28;;;4.54;47.85
68656;BME280;55638;51.122;13.606;2023-02-28T13:47:44;101576.56;;;4.56;48.89
68656;BME280;55638;51.122;13.606;2023-02-28T13:49:19;101573.81;;;4.57;50.20
68656;BME280;55638;51.122;13.606;2023-02-28T13:50:51;101574.59;;;4.61;50.49
68656;BME280;55638;51.122;13.606;2023-02-28T13:52:24;101577.97;;;4.66;50.50
68656;BME280;55638;51.122;13.606;2023-02-28T13:54:04;101572.50;;;4.69;48.07
68656;BME280;55638;51.122;13.606;2023-02-28T13:55:46;101574.97;;;4.75;46.05
68656;BME280;55638;51.122;13.606;2023-02-28T13:59:39;101567.28;;;4.66;47.36
68656;BME280;55638;51.122;13.606;2023-02-28T14:01:43;101572.88;;;4.58;46.82
68656;BME280;55638;51.122;13.606;2023-02-28T14:03:38;101571.97;;;4.59;47.40
68656;BME280;55638;51.122;13.606;2023-02-28T14:05:19;101568.44;;;4.59;46.54
68656;BME280;55638;51.122;13.606;2023-02-28T14:06:57;101563.91;;;4.61;48.55
68656;BME280;55638;51.122;13.606;2023-02-28T14:08:31;101564.66;;;4.65;48.77
68656;BME280;55638;51.122;13.606;2023-02-28T14:10:06;101560.06;;;4.68;48.64
68656;BME280;55638;51.122;13.606;2023-02-28T14:11:41;101556.25;;;4.75;50.02
68656;BME280;55638;51.122;13.606;2023-02-28T14:15:38;101553.94;;;4.90;48.23
68656;BME280;55638;51.122;13.606;2023-02-28T14:17:15;101553.59;;;4.99;48.55
68656;BME280;55638;51.122;13.606;2023-02-28T14:19:24;101560.50;;;5.04;46.65
68656;BME280;55638;51.122;13.606;2023-02-28T14:22:56;101558.22;;;5.17;47.95
68656;BME280;55638;51.122;13.606;2023-02-28T14:24:48;101558.06;;;5.20;47.71
68656;BME280;55638;51.122;13.606;2023-02-28T14:26:50;101552.56;;;5.25;47.33
68656;BME280;55638;51.122;13.606;2023-02-28T14:28:42;101557.88;;;5.26;46.55
68656;BME280;55638;51.122;13.606;2023-02-28T14:32:41;101554.38;;;5.24;44.65
68656;BME280;55638;51.122;13.606;2023-02-28T14:37:41;101550.13;;;5.19;46.15
68656;BME280;55638;51.122;13.606;2023-02-28T14:39:16;101549.16;;;5.21;47.60
68656;BME280;55638;51.122;13.606;2023-02-28T14:40:52;101544.03;;;5.15;44.71
68656;BME280;55638;51.122;13.606;2023-02-28T14:42:34;101546.75;;;5.14;46.82
68656;BME280;55638;51.122;13.606;2023-02-28T14:44:26;101532.88;;;5.04;42.61
68656;BME280;55638;51.122;13.606;2023-02-28T14:45:59;101536.38;;;5.06;46.90
68656;BME280;55638;51.122;13.606;2023-02-28T14:47:33;101543.53;;;5.05;46.47
68656;BME280;55638;51.122;13.606;2023-02-28T14:49:13;101543.13;;;4.93;45.65
68656;BME280;55638;51.122;13.606;2023-02-28T14:50:49;101543.47;;;4.83;46.89
68656;BME280;55638;51.122;13.606;2023-02-28T14:52:23;101541.09;;;4.76;47.35
68656;BME280;55638;51.122;13.606;2023-02-28T14:53:59;101539.47;;;4.72;48.02
68656;BME280;55638;51.122;13.606;2023-02-28T14:55:35;101547.66;;;4.67;47.99
68656;BME280;55638;51.122;13.606;2023-02-28T14:57:21;101543.59;;;4.57;44.67
68656;BME280;55638;51.122;13.606;2023-02-28T14:58:55;101541.84;;;4.56;47.92
68656;BME280;55638;51.122;13.606;2023-02-28T15:00:31;101538.41;;;4.52;47.33
68656;BME280;55638;51.122;13.606;2023-02-28T15:02:20;101546.69;;;4.45;46.41
68656;BME280;55638;51.122;13.606;2023-02-28T15:04:04;101548.69;;;4.40;47.68
68656;BME280;55638;51.122;13.606;2023-02-28T15:05:36;101551.38;;;4.38;48.62
68656;BME280;55638;51.122;13.606;2023-02-28T15:07:10;101547.03;;;4.35;48.73
68656;BME280;55638;51.122;13.606;2023-02-28T15:08:42;101548.06;;;4.31;48.37
68656;BME280;55638;51.122;13.606;2023-02-28T15:10:23;101546.44;;;4.27;48.02
68656;BME280;55638;51.122;13.606;2023-02-28T15:11:55;101551.88;;;4.24;48.75
68656;BME280;55638;51.122;13.606;2023-02-28T15:13:36;101550.28;;;4.19;47.07
68656;BME280;55638;51.122;13.606;2023-02-28T15:15:16;101553.25;;;4.11;47.59
68656;BME280;55638;51.122;13.606;2023-02-28T15:16:54;101553.28;;;4.09;48.73
68656;BME280;55638;51.122;13.606;2023-02-28T15:20:12;101556.41;;;3.97;47.74
68656;BME280;55638;51.122;13.606;2023-02-28T15:21:48;101548.53;;;3.93;47.99
68656;BME280;55638;51.122;13.606;2023-02-28T15:23:22;101550.50;;;3.87;49.25
68656;BME280;55638;51.122;13.606;2023-02-28T15:24:54;101555.94;;;3.84;48.90
68656;BME280;55638;51.122;13.606;2023-02-28T15:26:31;101546.28;;;3.80;48.56
68656;BME280;55638;51.122;13.606;2023-02-28T15:28:04;101549.84;;;3.81;49.21
68656;BME280;55638;51.122;13.606;2023-02-28T15:29:44;101547.38;;;3.75;45.56
68656;BME280;55638;51.122;13.606;2023-02-28T15:31:21;101552.63;;;3.76;48.71
68656;BME280;55638;51.122;13.606;2023-02-28T15:33:05;101543.84;;;3.74;47.55
68656;BME280;55638;51.122;13.606;2023-02-28T15:34:40;101549.16;;;3.74;49.32
68656;BME280;55638;51.122;13.606;2023-02-28T15:36:17;101549.22;;;3.73;49.42
68656;BME280;55638;51.122;13.606;2023-02-28T15:37:55;101544.91;;;3.69;49.05
68656;BME280;55638;51.122;13.606;2023-02-28T15:39:28;101549.47;;;3.65;49.36
68656;BME280;55638;51.122;13.606;2023-02-28T15:41:00;101542.47;;;3.61;49.63
68656;BME280;55638;51.122;13.606;2023-02-28T15:42:32;101544.56;;;3.51;49.63
68656;BME280;55638;51.122;13.606;2023-02-28T15:44:36;101549.44;;;3.38;48.17
68656;BME280;55638;51.122;13.606;2023-02-28T15:46:10;101551.25;;;3.36;49.71
68656;BME280;55638;51.122;13.606;2023-02-28T15:47:45;101553.31;;;3.27;49.57
68656;BME280;55638;51.122;13.606;2023-02-28T15:49:19;101544.69;;;3.18;49.65
68656;BME280;55638;51.122;13.606;2023-02-28T15:51:19;101546.72;;;3.10;49.52
68656;BME280;55638;51.122;13.606;2023-02-28T15:52:49;101558.53;;;3.02;50.10
68656;BME280;55638;51.122;13.606;2023-02-28T15:54:24;101551.66;;;2.94;49.97
68656;BME280;55638;51.122;13.606;2023-02-28T15:56:02;101555.50;;;2.84;49.76
68656;BME280;55638;51.122;13.606;2023-02-28T15:57:34;101553.09;;;2.75;49.94
68656;BME280;55638;51.122;13.606;2023-02-28T15:59:07;101557.78;;;2.67;50.18
68656;BME280;55638;51.122;13.606;2023-02-28T16:01:33;101551.06;;;2.54;48.63
68656;BME280;55638;51.122;13.606;2023-02-28T16:02:57;101556.53;;;2.49;50.40
68656;BME280;55638;51.122;13.606;2023-02-28T16:04:29;101548.78;;;2.40;50.68
68656;BME280;55638;51.122;13.606;2023-02-28T16:06:28;101545.59;;;2.27;50.00
68656;BME280;55638;51.122;13.606;2023-02-28T16:08:13;101547.59;;;2.19;49.72
68656;BME280;55638;51.122;13.606;2023-02-28T16:09:45;101553.88;;;2.15;51.03
68656;BME280;55638;51.122;13.606;2023-02-28T16:11:20;101551.44;;;2.07;51.02
68656;BME280;55638;51.122;13.606;2023-02-28T16:12:54;101548.06;;;2.00;51.17
68656;BME280;55638;51.122;13.606;2023-02-28T16:14:28;101553.59;;;1.93;51.45
68656;BME280;55638;51.122;13.606;2023-02-28T16:16:04;101559.94;;;1.87;51.64
68656;BME280;55638;51.122;13.606;2023-02-28T16:17:38;101560.09;;;1.81;51.80
68656;BME280;55638;51.122;13.606;2023-02-28T16:19:10;101556.69;;;1.76;52.11
68656;BME280;55638;51.122;13.606;2023-02-28T16:20:42;101554.13;;;1.71;52.09
68656;BME280;55638;51.122;13.606;2023-02-28T16:22:16;101557.81;;;1.66;52.11
68656;BME280;55638;51.122;13.606;2023-02-28T16:23:48;101566.75;;;1.63;52.43
68656;BME280;55638;51.122;13.606;2023-02-28T16:25:29;101558.94;;;1.55;51.57
68656;BME280;55638;51.122;13.606;2023-02-28T16:27:05;101561.69;;;1.52;52.44
68656;BME280;55638;51.122;13.606;2023-02-28T16:28:38;101557.44;;;1.45;52.55
68656;BME280;55638;51.122;13.606;2023-02-28T16:30:20;101562.00;;;1.39;52.35
68656;BME280;55638;51.122;13.606;2023-02-28T16:31:53;101560.34;;;1.35;52.73
68656;BME280;55638;51.122;13.606;2023-02-28T16:33:25;101562.28;;;1.28;52.70
68656;BME280;55638;51.122;13.606;2023-02-28T16:34:57;101564.19;;;1.21;53.13
68656;BME280;55638;51.122;13.606;2023-02-28T16:36:29;101556.38;;;1.14;52.98
68656;BME280;55638;51.122;13.606;2023-02-28T16:38:01;101560.94;;;1.07;53.34
68656;BME280;55638;51.122;13.606;2023-02-28T16:39:33;101552.25;;;1.00;53.08
68656;BME280;55638;51.122;13.606;2023-02-28T16:41:05;101557.75;;;0.93;53.11
68656;BME280;55638;51.122;13.606;2023-02-28T16:42:37;101556.09;;;0.84;53.34
68656;BME280;55638;51.122;13.606;2023-02-28T16:44:13;101552.75;;;0.76;52.98
68656;BME280;55638;51.122;13.606;2023-02-28T16:45:45;101551.16;;;0.67;53.43
68656;BME280;55638;51.122;13.606;2023-02-28T16:47:17;101554.84;;;0.60;53.41
68656;BME280;55638;51.122;13.606;2023-02-28T16:48:49;101556.78;;;0.52;53.63
68656;BME280;55638;51.122;13.606;2023-02-28T16:50:28;101556.06;;;0.44;53.42
68656;BME280;55638;51.122;13.606;2023-02-28T16:52:01;101561.47;;;0.37;53.57
68656;BME280;55638;51.122;13.606;2023-02-28T16:53:33;101554.56;;;0.29;53.69
68656;BME280;55638;51.122;13.606;2023-02-28T16:55:05;101562.63;;;0.23;53.69
68656;BME280;55638;51.122;13.606;2023-02-28T16:56:40;101564.56;;;0.14;53.90
68656;BME280;55638;51.122;13.606;2023-02-28T16:58:15;101566.47;;;0.08;53.97
68656;BME280;55638;51.122;13.606;2023-02-28T16:59:48;101567.50;;;-0.01;54.28
68656;BME280;55638;51.122;13.606;2023-02-28T17:01:22;101565.84;;;-0.08;54.16
68656;BME280;55638;51.122;13.606;2023-02-28T17:02:55;101562.44;;;-0.15;54.40
68656;BME280;55638;51.122;13.606;2023-02-28T17:04:27;101565.19;;;-0.21;54.47
68656;BME280;55638;51.122;13.606;2023-02-28T17:06:00;101564.41;;;-0.27;54.58
68656;BME280;55638;51.122;13.606;2023-02-28T17:07:32;101565.38;;;-0.33;54.63
68656;BME280;55638;51.122;13.606;2023-02-28T17:09:03;101564.63;;;-0.41;54.69
68656;BME280;55638;51.122;13.606;2023-02-28T17:10:35;101569.16;;;-0.48;54.71
68656;BME280;55638;51.122;13.606;2023-02-28T17:12:08;101567.47;;;-0.53;54.96
68656;BME280;55638;51.122;13.606;2023-02-28T17:13:40;101571.09;;;-0.59;54.87
68656;BME280;55638;51.122;13.606;2023-02-28T17:15:13;101576.47;;;-0.65;55.10
68656;BME280;55638;51.122;13.606;2023-02-28T17:16:46;101575.69;;;-0.70;55.17
68656;BME280;55638;51.122;13.606;2023-02-28T17:18:20;101571.38;;;-0.78;55.23
68656;BME280;55638;51.122;13.606;2023-02-28T17:19:52;101575.81;;;-0.80;55.35
68656;BME280;55638;51.122;13.606;2023-02-28T17:21:24;101575.88;;;-0.86;55.53
68656;BME280;55638;51.122;13.606;2023-02-28T17:22:56;101573.31;;;-0.90;55.58
68656;BME280;55638;51.122;13.606;2023-02-28T17:24:28;101579.53;;;-0.94;55.71
68656;BME280;55638;51.122;13.606;2023-02-28T17:26:02;101573.44;;;-0.99;55.69
68656;BME280;55638;51.122;13.606;2023-02-28T17:27:36;101579.69;;;-1.04;55.69
68656;BME280;55638;51.122;13.606;2023-02-28T17:29:17;101580.63;;;-1.11;55.92
68656;BME280;55638;51.122;13.606;2023-02-28T17:30:49;101578.03;;;-1.14;55.80
68656;BME280;55638;51.122;13.606;2023-02-28T17:32:21;101581.59;;;-1.18;55.90
68656;BME280;55638;51.122;13.606;2023-02-28T17:33:53;101579.91;;;-1.22;56.01
68656;BME280;55638;51.122;13.606;2023-02-28T17:35:28;101577.31;;;-1.30;56.04
68656;BME280;55638;51.122;13.606;2023-02-28T17:37:00;101579.19;;;-1.35;56.38
68656;BME280;55638;51.122;13.606;2023-02-28T17:38:34;101582.75;;;-1.39;56.45
68656;BME280;55638;51.122;13.606;2023-02-28T17:40:06;101584.56;;;-1.44;56.50
68656;BME280;55638;51.122;13.606;2023-02-28T17:41:39;101579.34;;;-1.50;56.66
68656;BME280;55638;51.122;13.606;2023-02-28T17:43:11;101575.00;;;-1.54;56.73
68656;BME280;55638;51.122;13.606;2023-02-28T17:44:43;101573.28;;;-1.58;56.71
68656;BME280;55638;51.122;13.606;2023-02-28T17:46:20;101574.22;;;-1.65;57.04
68656;BME280;55638;51.122;13.606;2023-02-28T17:47:53;101586.59;;;-1.67;57.12
68656;BME280;55638;51.122;13.606;2023-02-28T17:49:25;101584.88;;;-1.72;57.10
68656;BME280;55638;51.122;13.606;2023-02-28T17:50:56;101583.13;;;-1.74;57.20
68656;BME280;55638;51.122;13.606;2023-02-28T17:52:28;101580.53;;;-1.79;57.29
68656;BME280;55638;51.122;13.606;2023-02-28T17:54:00;101584.97;;;-1.81;57.39
68656;BME280;55638;51.122;13.606;2023-02-28T17:55:32;101580.63;;;-1.85;57.52
68656;BME280;55638;51.122;13.606;2023-02-28T17:57:05;101577.97;;;-1.86;57.46
68656;BME280;55638;51.122;13.606;2023-02-28T17:58:37;101580.63;;;-1.89;57.80
68656;BME280;55638;51.122;13.606;2023-02-28T18:00:15;101570.09;;;-1.92;57.83
68656;BME280;55638;51.122;13.606;2023-02-28T18:01:47;101566.59;;;-1.93;57.84
68656;BME280;55638;51.122;13.606;2023-02-28T18:03:20;101568.34;;;-1.95;57.88
68656;BME280;55638;51.122;13.606;2023-02-28T18:04:52;101564.88;;;-1.97;57.71
68656;BME280;55638;51.122;13.606;2023-02-28T18:06:27;101570.19;;;-2.00;57.85
68656;BME280;55638;51.122;13.606;2023-02-28T18:08:00;101562.25;;;-2.02;58.16
68656;BME280;55638;51.122;13.606;2023-02-28T18:09:32;101571.06;;;-2.03;58.01
68656;BME280;55638;51.122;13.606;2023-02-28T18:11:04;101573.75;;;-2.04;57.94
68656;BME280;55638;51.122;13.606;2023-02-28T18:12:35;101572.88;;;-2.06;58.01
68656;BME280;55638;51.122;13.606;2023-02-28T18:14:07;101571.13;;;-2.07;58.17
68656;BME280;55638;51.122;13.606;2023-02-28T18:15:39;101568.50;;;-2.09;58.28
68656;BME280;55638;51.122;13.606;2023-02-28T18:17:11;101573.78;;;-2.09;58.34
68656;BME280;55638;51.122;13.606;2023-02-28T18:18:43;101571.16;;;-2.10;58.45
68656;BME280;55638;51.122;13.606;2023-02-28T18:20:15;101567.63;;;-2.12;58.50
68656;BME280;55638;51.122;13.606;2023-02-28T18:21:50;101572.94;;;-2.12;58.50
68656;BME280;55638;51.122;13.606;2023-02-28T18:23:22;101572.06;;;-2.13;58.41
68656;BME280;55638;51.122;13.606;2023-02-28T18:24:54;101574.69;;;-2.13;58.54
68656;BME280;55638;51.122;13.606;2023-02-28T18:26:26;101567.66;;;-2.14;58.62
68656;BME280;55638;51.122;13.606;2023-02-28T18:27:58;101568.53;;;-2.13;58.41
68656;BME280;55638;51.122;13.606;2023-02-28T18:29:30;101577.34;;;-2.14;58.49
68656;BME280;55638;51.122;13.606;2023-02-28T18:31:07;101572.94;;;-2.15;58.45
68656;BME280;55638;51.122;13.606;2023-02-28T18:32:39;101565.03;;;-2.19;58.54
68656;BME280;55638;51.122;13.606;2023-02-28T18:34:11;101570.34;;;-2.19;58.37
68656;BME280;55638;51.122;13.606;2023-02-28T18:35:43;101568.59;;;-2.20;58.38
68656;BME280;55638;51.122;13.606;2023-02-28T18:37:15;101570.34;;;-2.22;58.22
68656;BME280;55638;51.122;13.606;2023-02-28T18:38:49;101571.25;;;-2.24;58.41
68656;BME280;55638;51.122;13.606;2023-02-28T18:40:21;101566.91;;;-2.27;58.41
68656;BME280;55638;51.122;13.606;2023-02-28T18:41:53;101573.03;;;-2.28;58.48
68656;BME280;55638;51.122;13.606;2023-02-28T18:43:26;101581.00;;;-2.31;58.55
68656;BME280;55638;51.122;13.606;2023-02-28T18:44:58;101578.38;;;-2.32;58.66
68656;BME280;55638;51.122;13.606;2023-02-28T18:46:29;101577.53;;;-2.36;58.80
68656;BME280;55638;51.122;13.606;2023-02-28T18:48:02;101571.38;;;-2.38;58.74
68656;BME280;55638;51.122;13.606;2023-02-28T18:49:34;101576.66;;;-2.38;58.75